Terminal Aerodrome Forecast
Issued by NWS Tampa Bay Area, FL

Home | Current Version | Previous Version | Text Only | Print | Product List | Glossary On
Versions: 1 2 3 4 5 6 7 8 9 10 11 12
000
FTUS42 KTBW 290520
TAFSRQ
TAF
KSRQ 290520Z 2906/3006 VRB03KT P6SM FEW040 SCT090
     FM291800 26008KT P6SM SCT050 SCT150
     FM300300 33005KT P6SM FEW250=

USA.gov is the U.S. government's official web portal to all federal, state and local government web resources and services.